Flight Track Log - Related Links

Times and Time Zones

All times are in EDT time to prevent confusion due to time zone crossing. See the UCA3599 flight status page for this flight to view local times or setup timezone preferences in your user account.

Time Position Orientation Groundspeed Altitude Reporting Facility
EDT Latitude Longitude Course Direction KTS MPH feet Rate Location/Type
Tue 06:11:21 AM 42.2083 -76.0369 212° Southwest 171 197 3,400  Level New York Center
Tue 06:12:21 AM 42.1694 -76.0700 212° Southwest 187 215 5,000 1,750 Climbing New York Center
Tue 06:13:21 AM 42.1283 -76.1031 211° Southwest 187 215 6,900 1,800 Climbing New York Center
Tue 06:14:21 AM 42.0917 -76.1367 214° Southwest 175 201 8,600 1,500 Climbing New York Center
Tue 06:15:21 AM 42.0547 -76.1697 214° Southwest 170 196 9,900 1,400 Climbing New York Center
Tue 06:16:21 AM 42.0114 -76.2053 211° Southwest 184 212 11,400 1,500 Climbing New York Center
Tue 06:17:21 AM 41.9703 -76.2411 213° Southwest 179 206 12,900 1,400 Climbing New York Center
Tue 06:18:21 AM 41.9297 -76.2628 202° Southwest 179 206 14,200 1,250 Climbing New York Center
Tue 06:19:21 AM 41.8847 -76.2897 204° Southwest 179 206 15,400 900 Climbing New York Center
Tue 06:20:21 AM 41.8269 -76.3211 202° Southwest 184 212 16,000 300 Climbing New York Center
Tue 06:21:21 AM 41.7650 -76.3550 202° Southwest 223 257 16,000  Level New York Center
Tue 06:22:21 AM 41.6967 -76.3908 201° Southwest 250 288 16,000  Level New York Center
Tue 06:23:21 AM 41.6367 -76.4275 205° Southwest 265 305 16,000  Level New York Center
Tue 06:24:21 AM 41.5597 -76.4681 202° Southwest 265 305 16,000  Level New York Center
Tue 06:25:21 AM 41.4911 -76.5067 203° Southwest 265 305 16,000  Level New York Center
Tue 06:26:21 AM 41.4231 -76.5394 200° South 265 305 16,000  Level New York Center
Tue 06:27:21 AM 41.3631 -76.5731 203° Southwest 265 305 16,000  Level New York Center
Tue 06:28:21 AM 41.2922 -76.6111 202° Southwest 265 305 16,000  Level New York Center
Tue 06:29:21 AM 41.2194 -76.6517 203° Southwest 259 298 16,000  Level New York Center
Tue 06:30:21 AM 41.1572 -76.6878 204° Southwest 264 304 16,000  Level New York Center
Tue 06:31:21 AM 41.0889 -76.7231 201° Southwest 264 304 16,000  Level New York Center
Tue 06:32:22 AM 41.0203 -76.7611 203° Southwest 264 304 16,000  Level New York Center
Tue 06:33:21 AM 40.9517 -76.7992 203° Southwest 264 304 16,000  Level New York Center
Tue 06:34:22 AM 40.8767 -76.8392 202° Southwest 264 304 16,000  Level New York Center
Tue 06:35:21 AM 40.8144 -76.8719 202° Southwest 264 304 16,000  Level New York Center
Tue 06:36:21 AM 40.7358 -76.9033 197° South 264 304 16,000  Level New York Center
Tue 06:37:21 AM 40.6703 -76.9219 192° South 270 311 16,000  Level New York Center
Tue 06:38:22 AM 40.5897 -76.9475 194° South 275 316 16,000  Level New York Center
Tue 06:39:22 AM 40.5239 -76.9689 194° South 275 316 16,000  Level New York Center
Tue 06:40:22 AM 40.4436 -76.9919 192° South 275 316 16,000 -328 Level New York Center
Tue 06:42:25 AM 40.3000 -77.0333 192° South 279 321 15,000 -689 Descending Potomac TRACON
Tue 06:43:25 AM 40.2167 -77.0667 197° South 288 331 13,900 -1,095 Descending Potomac TRACON
Tue 06:44:31 AM 40.1333 -77.0833 189° South 288 331 12,700 -1,100 Descending Potomac TRACON
Tue 06:45:25 AM 40.0667 -77.1167 201° Southwest 270 311 11,700 -1,053 Descending Potomac TRACON
Tue 06:46:25 AM 40.0000 -77.1333 191° South 262 302 10,700 -1,105 Descending Potomac TRACON
Tue 06:47:19 AM 39.9333 -77.1500 191° South 257 296 9,600 -1,000 Descending Potomac TRACON
Tue 06:48:19 AM 39.8667 -77.1833 201° Southwest 251 289 8,800 -800 Descending Potomac TRACON
Tue 06:49:19 AM 39.8000 -77.2167 201° Southwest 249 287 8,000 -835 Descending Potomac TRACON
Tue 06:50:14 AM 39.7500 -77.2500 207° Southwest 243 280 7,200 -550 Descending Potomac TRACON
Tue 06:51:08 AM 39.7000 -77.3000 218° Southwest 245 282 7,000 -105 Descending Potomac TRACON
Tue 06:52:08 AM 39.6333 -77.3333 201° Southwest 240 276 7,000 -105 Level Potomac TRACON
Tue 06:53:02 AM 39.5667 -77.3500 191° South 246 283 6,800 -789 Descending Potomac TRACON
Tue 06:54:02 AM 39.5333 -77.4167 237° Southwest 242 278 5,500 -1,300 Descending Potomac TRACON
Tue 06:55:02 AM 39.4833 -77.4500 207° Southwest 251 289 4,200 -750 Descending Potomac TRACON
Tue 06:56:02 AM 39.4333 -77.3833 134° Southeast 253 291 4,000 -105 Descending Potomac TRACON
Tue 06:56:56 AM 39.3667 -77.3500 159° South 247 284 4,000  Level Potomac TRACON
Tue 06:57:56 AM 39.3000 -77.3500 180° South 241 277 4,000  Level Potomac TRACON
Tue 06:58:57 AM 39.2333 -77.3500 180° South 240 276 4,000  Level Potomac TRACON
Tue 06:59:51 AM 39.1833 -77.3500 180° South 242 278 4,000  Level Potomac TRACON
Tue 07:00:51 AM 39.1167 -77.3500 180° South 241 277 4,000  Level Potomac TRACON
Tue 07:01:51 AM 39.0500 -77.3667 191° South 241 277 4,000  Level Potomac TRACON
Tue 07:02:51 AM 38.9833 -77.3667 180° South 244 281 4,000 -450 Level Potomac TRACON
Tue 07:03:51 AM 38.9000 -77.3667 180° South 251 289 3,100 -500 Descending Potomac TRACON
Tue 07:04:51 AM 38.8500 -77.3667 180° South 229 264 3,000 -579 Descending Potomac TRACON
Tue 07:05:45 AM 38.8000 -77.3667 180° South 198 228 2,000 -526 Descending Potomac TRACON
Tue 07:06:45 AM 38.8000 -77.4333 270° West 204 235 2,000 -50 Level Potomac TRACON
Tue 07:07:45 AM 38.8500 -77.4333 360° North 143 165 1,900 -350 Descending Potomac TRACON
Tue 07:08:45 AM 38.8833 -77.4333 360° North 116 133 1,300 -600 Descending Potomac TRACON
Tue 07:09:45 AM 38.9000 -77.4333 360° North 109 125 700 -600 Descending Potomac TRACON

Login

Don't have an account? Register now (free) for customized features, flight alerts, and more!